Time;durP1;ratioP1;P1;durP2;ratioP2;P2;SDS_P1;SDS_P2;PMS_P1;PMS_P2;Temp;Humidity;BMP_temperature;BMP_pressure;BME280_temperature;BME280_humidity;BME280_pressure;Samples;Min_cycle;Max_cycle;Signal;HPM_P1;HPM_P2
2023/10/15 00:00:15;;;;;;;7.25;4.85;;;;;;;13.61;57.01;94522.38;5082198;28;20021;-74
2023/10/15 00:02:43;;;;;;;7.25;4.78;;;;;;;13.78;57.01;94531.13;5053272;28;20032;-73
2023/10/15 00:05:10;;;;;;;8.75;5.05;;;;;;;13.70;57.16;94541.53;5076924;28;20129;-73
2023/10/15 00:07:35;;;;;;;6.72;4.72;;;;;;;13.47;57.81;94522.13;5088920;28;20585;-73
2023/10/15 00:10:01;;;;;;;8.38;5.18;;;;;;;13.39;58.33;94526.28;5088717;28;20031;-74
2023/10/15 00:12:26;;;;;;;6.13;4.85;;;;;;;13.43;57.86;94518.16;5088196;28;20494;-73
2023/10/15 00:14:52;;;;;;;8.27;4.95;;;;;;;13.44;57.98;94523.25;5055558;28;20039;-74
2023/10/15 00:17:18;;;;;;;9.43;4.80;;;;;;;13.38;58.00;94514.22;5066034;28;20116;-74
2023/10/15 00:19:44;;;;;;;6.25;4.68;;;;;;;13.24;58.73;94521.75;5053580;28;20059;-74
2023/10/15 00:22:09;;;;;;;8.52;5.10;;;;;;;13.13;58.57;94499.31;5090119;28;20119;-74
2023/10/15 00:24:37;;;;;;;7.50;5.07;;;;;;;13.29;58.57;94520.34;5092535;28;20020;-74
2023/10/15 00:27:03;;;;;;;6.68;4.82;;;;;;;12.96;58.44;94467.06;5068587;28;20513;-74
2023/10/15 00:29:28;;;;;;;9.88;5.25;;;;;;;13.26;58.68;94525.03;5091108;28;20035;-74
2023/10/15 00:31:54;;;;;;;8.75;5.35;;;;;;;13.14;58.91;94511.38;5076051;28;20032;-74
2023/10/15 00:34:20;;;;;;;6.72;4.88;;;;;;;12.95;59.65;94517.56;5054753;28;20039;-74
2023/10/15 00:36:48;;;;;;;8.13;4.90;;;;;;;13.04;59.53;94513.22;5090782;28;20118;-75
2023/10/15 00:39:20;;;;;;;7.45;4.78;;;;;;;13.00;59.37;94519.72;5058491;28;20032;-74
2023/10/15 00:41:47;;;;;;;6.85;4.82;;;;;;;12.92;59.60;94516.06;5074158;28;20025;-75
2023/10/15 00:44:14;;;;;;;7.30;4.63;;;;;;;12.82;59.38;94504.91;5043670;28;20115;-75
2023/10/15 00:46:39;;;;;;;8.23;5.15;;;;;;;12.88;59.33;94509.53;5087400;28;20028;-74
2023/10/15 00:49:14;;;;;;;5.85;4.80;;;;;;;12.75;59.72;94498.63;5059109;28;20024;-74
2023/10/15 00:51:43;;;;;;;8.50;4.95;;;;;;;12.66;60.02;94499.53;5061632;28;20032;-73
2023/10/15 00:54:15;;;;;;;8.05;4.78;;;;;;;12.75;59.97;94509.88;5076439;28;20437;-74
2023/10/15 00:56:41;;;;;;;7.05;5.10;;;;;;;12.77;59.90;94512.34;5089398;28;20464;-73
2023/10/15 01:01:38;;;;;;;6.93;5.10;;;;;;;12.59;59.96;94488.88;5073944;28;20157;-74
2023/10/15 01:04:06;;;;;;;6.28;4.97;;;;;;;12.57;60.27;94509.06;5092554;28;20028;-73
2023/10/15 01:06:35;;;;;;;6.78;4.90;;;;;;;12.61;60.36;94520.00;5090543;28;20032;-73
2023/10/15 01:09:18;;;;;;;8.18;4.70;;;;;;;12.71;60.25;94520.75;5071024;28;20490;-73
2023/10/15 01:11:56;;;;;;;7.65;5.20;;;;;;;12.44;60.19;94488.53;5090119;28;20055;-74
2023/10/15 01:14:38;;;;;;;6.20;4.80;;;;;;;12.57;60.54;94521.25;5075996;28;20080;-74
2023/10/15 01:17:04;;;;;;;9.23;5.30;;;;;;;12.29;60.71;94490.00;5089653;28;20032;-73
2023/10/15 01:19:33;;;;;;;8.50;4.88;;;;;;;12.46;60.80;94517.88;5091834;28;20464;-73
2023/10/15 01:22:08;;;;;;;8.02;4.80;;;;;;;12.46;61.03;94509.25;5073120;28;20035;-74
2023/10/15 01:24:36;;;;;;;8.98;5.03;;;;;;;12.50;60.79;94505.38;5063470;28;20056;-73
2023/10/15 01:27:11;;;;;;;7.63;4.63;;;;;;;12.32;61.23;94489.72;5091081;28;20034;-73
2023/10/15 01:29:42;;;;;;;6.97;5.03;;;;;;;12.26;61.53;94485.09;5090670;28;20032;-73
2023/10/15 01:32:10;;;;;;;8.02;4.63;;;;;;;12.34;61.45;94493.00;5075216;28;20032;-73
2023/10/15 01:34:45;;;;;;;8.27;4.90;;;;;;;12.35;61.37;94494.63;5091568;28;20035;-73
2023/10/15 01:39:52;;;;;;;6.68;4.93;;;;;;;12.33;61.59;94490.53;5074580;28;20028;-74
2023/10/15 01:44:57;;;;;;;7.30;4.88;;;;;;;12.46;60.90;94491.84;5073163;28;20493;-74
2023/10/15 01:47:29;;;;;;;6.35;4.50;;;;;;;12.33;61.10;94488.75;5088882;28;20039;-73
2023/10/15 01:49:56;;;;;;;7.65;4.68;;;;;;;12.22;60.83;94483.72;5088529;28;20028;-73
2023/10/15 01:52:32;;;;;;;6.43;4.38;;;;;;;12.30;61.10;94497.66;5061380;28;20036;-73
2023/10/15 01:55:03;;;;;;;6.00;4.32;;;;;;;12.33;60.73;94486.13;5074138;28;20020;-73
2023/10/15 01:57:29;;;;;;;7.30;4.63;;;;;;;12.54;60.19;94493.72;5090772;28;20067;-73
2023/10/15 02:00:05;;;;;;;6.13;4.38;;;;;;;12.55;60.43;94505.75;5056236;28;20055;-74
2023/10/15 02:02:30;;;;;;;7.65;4.47;;;;;;;12.28;60.42;94473.53;5076098;28;20046;-74
2023/10/15 02:04:57;;;;;;;8.35;4.93;;;;;;;12.51;60.43;94501.81;5089427;28;20036;-74
2023/10/15 02:07:22;;;;;;;5.95;4.78;;;;;;;12.43;60.67;94507.75;5089970;28;20490;-74
2023/10/15 02:09:48;;;;;;;8.38;4.60;;;;;;;12.60;60.44;94500.94;5071502;28;20086;-74
2023/10/15 02:12:14;;;;;;;9.98;4.25;;;;;;;12.41;61.00;94498.44;5091097;28;20494;-74
2023/10/15 02:14:44;;;;;;;6.32;4.35;;;;;;;12.46;60.81;94498.84;5089257;28;20028;-74
2023/10/15 02:17:18;;;;;;;7.13;5.00;;;;;;;12.30;61.07;94489.03;5089272;28;20108;-74
2023/10/15 02:19:44;;;;;;;7.68;4.60;;;;;;;12.34;61.08;94493.00;5090960;28;20035;-75
2023/10/15 02:22:12;;;;;;;6.07;4.63;;;;;;;12.29;61.22;94490.00;5053039;28;20425;-75
2023/10/15 02:24:47;;;;;;;8.55;4.78;;;;;;;12.26;61.67;94501.53;5070994;28;20137;-74
2023/10/15 02:27:27;;;;;;;7.35;4.70;;;;;;;12.31;61.54;94501.09;5087888;28;20042;-74
2023/10/15 02:29:52;;;;;;;6.30;4.65;;;;;;;12.15;61.71;94482.69;5075005;28;20113;-74
2023/10/15 02:32:27;;;;;;;9.68;4.93;;;;;;;12.18;61.62;94491.03;5089309;28;20032;-74
2023/10/15 02:34:54;;;;;;;8.10;4.85;;;;;;;12.05;61.84;94478.31;5072371;28;20039;-74
2023/10/15 02:37:23;;;;;;;6.72;4.47;;;;;;;12.09;62.16;94497.09;5069574;28;20044;-74
2023/10/15 02:39:51;;;;;;;7.60;4.80;;;;;;;12.11;61.97;94489.13;5056057;28;20046;-74
2023/10/15 02:42:17;;;;;;;9.18;4.75;;;;;;;12.17;62.04;94499.78;5055026;28;20044;-74
2023/10/15 02:44:44;;;;;;;8.77;4.55;;;;;;;11.91;62.19;94473.59;5070224;28;20078;-74
2023/10/15 02:49:53;;;;;;;6.88;4.30;;;;;;;11.94;62.78;94499.34;5071565;28;20565;-74
2023/10/15 02:52:24;;;;;;;8.02;5.30;;;;;;;11.89;62.82;94498.94;5073356;28;20032;-74
2023/10/15 02:54:49;;;;;;;;;;;;;;;11.84;62.94;94504.56;5070959;28;20038;-74
2023/10/15 02:57:15;;;;;;;7.43;4.70;;;;;;;11.71;63.09;94493.63;5089012;28;19973;-73
2023/10/15 02:59:50;;;;;;;12.10;4.95;;;;;;;11.68;63.50;94495.72;5071763;28;20485;-74
2023/10/15 03:02:17;;;;;;;6.30;4.90;;;;;;;11.66;63.43;94497.63;5073752;28;20067;-74
2023/10/15 03:04:49;;;;;;;6.88;4.95;;;;;;;11.70;63.25;94492.00;5086139;28;20490;-73
2023/10/15 03:07:19;;;;;;;9.65;5.18;;;;;;;11.72;63.45;94502.25;5086592;28;20059;-74
2023/10/15 03:09:52;;;;;;;7.65;5.10;;;;;;;11.64;63.25;94489.94;5071867;28;20535;-74
2023/10/15 03:12:18;;;;;;;7.97;4.75;;;;;;;11.72;63.63;94494.44;5064235;28;20033;-75
2023/10/15 03:14:45;;;;;;;7.55;4.93;;;;;;;11.61;63.85;94491.03;5071014;28;20067;-75
2023/10/15 03:17:14;;;;;;;9.85;5.40;;;;;;;11.69;63.71;94492.94;5086693;28;20048;-75
2023/10/15 03:19:42;;;;;;;7.05;4.53;;;;;;;11.68;63.48;94495.72;5089815;28;20505;-75
2023/10/15 03:22:12;;;;;;;8.27;4.90;;;;;;;11.69;63.63;94486.94;5072532;28;20023;-75
2023/10/15 03:24:39;;;;;;;6.97;4.57;;;;;;;11.62;63.84;94482.31;5088053;28;20031;-75
2023/10/15 03:27:05;;;;;;;7.68;4.80;;;;;;;11.61;63.99;94487.63;5085535;28;20024;-75
2023/10/15 03:29:32;;;;;;;7.88;4.60;;;;;;;11.59;64.02;94482.59;5083644;28;20485;-74
2023/10/15 03:32:12;;;;;;;9.63;4.85;;;;;;;11.45;64.33;94470.03;5069125;28;20086;-74
2023/10/15 03:34:42;;;;;;;6.97;5.20;;;;;;;11.53;64.10;94470.16;5063394;28;20028;-74
2023/10/15 03:37:13;;;;;;;9.18;5.07;;;;;;;11.50;64.46;94482.59;5087785;28;20039;-75
2023/10/15 03:44:44;;;;;;;6.82;4.88;;;;;;;11.27;64.60;94476.91;5071068;28;20116;-74
2023/10/15 03:47:09;;;;;;;7.10;5.07;;;;;;;11.34;64.81;94486.63;5086231;28;20417;-74
2023/10/15 03:49:36;;;;;;;6.38;4.72;;;;;;;11.44;64.50;94489.19;5090352;28;20032;-75
2023/10/15 03:52:08;;;;;;;6.65;5.07;;;;;;;11.28;64.64;94475.94;5089111;28;20115;-74
2023/10/15 03:54:37;;;;;;;6.22;4.72;;;;;;;11.37;64.51;94488.13;5054462;28;20025;-74
2023/10/15 03:57:06;;;;;;;7.82;5.10;;;;;;;11.43;64.35;94484.94;5065592;28;20032;-75
2023/10/15 03:59:41;;;;;;;7.00;4.80;;;;;;;11.33;64.20;94455.53;5040662;28;20029;-75
2023/10/15 04:02:09;;;;;;;5.70;4.70;;;;;;;11.51;63.80;94479.06;5086463;28;20510;-74
2023/10/15 04:04:37;;;;;;;6.18;4.75;;;;;;;11.48;64.20;94479.31;5072899;28;20042;-74
2023/10/15 04:07:19;;;;;;;7.30;4.93;;;;;;;11.40;64.37;94478.25;5070139;28;20024;-74
2023/10/15 04:09:44;;;;;;;7.90;4.38;;;;;;;11.44;64.18;94476.19;5088114;28;20036;-74
2023/10/15 04:12:10;;;;;;;6.68;4.75;;;;;;;11.40;63.99;94460.03;5072421;28;20030;-74
2023/10/15 04:14:35;;;;;;;8.88;5.13;;;;;;;11.45;63.79;94463.97;5067495;28;20032;-74
2023/10/15 04:17:01;;;;;;;5.38;4.50;;;;;;;11.49;64.03;94479.19;5087328;28;20032;-74
2023/10/15 04:19:27;;;;;;;9.32;4.18;;;;;;;11.50;63.74;94467.00;5087763;28;20036;-74
2023/10/15 04:21:53;;;;;;;7.45;5.05;;;;;;;11.40;64.24;94470.44;5069620;28;20033;-74
2023/10/15 04:24:27;;;;;;;9.77;5.25;;;;;;;11.41;63.94;94463.47;5055595;28;20478;-74
2023/10/15 04:26:53;;;;;;;6.32;4.60;;;;;;;11.30;64.23;94458.41;5070451;28;20032;-74
2023/10/15 04:29:20;;;;;;;6.90;4.70;;;;;;;11.49;63.92;94470.56;5072435;28;20031;-74
2023/10/15 04:31:52;;;;;;;7.53;4.82;;;;;;;11.48;63.90;94469.75;5070735;28;20036;-74
2023/10/15 04:34:21;;;;;;;7.45;4.90;;;;;;;11.32;64.45;94461.72;5073465;28;20081;-74
2023/10/15 04:36:47;;;;;;;7.82;4.88;;;;;;;11.29;64.57;94470.59;5082325;28;20032;-74
2023/10/15 04:39:13;;;;;;;6.05;4.55;;;;;;;11.27;64.13;94461.28;5089146;28;20440;-74
2023/10/15 04:41:40;;;;;;;8.55;5.38;;;;;;;11.28;64.27;94461.16;5070649;28;20040;-74
2023/10/15 04:44:13;;;;;;;8.93;4.60;;;;;;;11.37;64.09;94472.50;5055505;28;20537;-74
2023/10/15 04:46:42;;;;;;;7.68;4.72;;;;;;;11.31;64.26;94470.44;5083617;28;20177;-74
2023/10/15 04:49:08;;;;;;;6.78;5.05;;;;;;;11.35;64.05;94470.03;5088942;28;20470;-74
2023/10/15 04:51:42;;;;;;;8.75;4.75;;;;;;;11.30;64.21;94468.81;5073366;28;20123;-74
2023/10/15 04:54:09;;;;;;;9.50;4.60;;;;;;;11.24;64.22;94456.38;5064843;28;20085;-75
2023/10/15 04:56:34;;;;;;;6.07;4.70;;;;;;;11.36;64.39;94481.25;5066964;28;20064;-74
2023/10/15 04:59:00;;;;;;;6.05;4.60;;;;;;;11.35;64.05;94480.44;5070629;28;20501;-75
2023/10/15 05:01:26;;;;;;;6.50;4.80;;;;;;;11.48;63.83;94479.31;5056056;28;20048;-75
2023/10/15 05:03:51;;;;;;;6.18;4.97;;;;;;;11.53;63.72;94477.94;5055834;28;20214;-75
2023/10/15 05:06:17;;;;;;;6.15;4.57;;;;;;;11.57;63.24;94481.91;5059524;28;20025;-76
2023/10/15 05:08:47;;;;;;;7.63;4.50;;;;;;;11.46;63.78;94482.06;5063493;28;20032;-75
2023/10/15 05:11:12;;;;;;;6.38;4.57;;;;;;;11.38;63.97;94487.16;5070151;28;20051;-75
2023/10/15 05:13:38;;;;;;;7.15;4.47;;;;;;;11.44;63.08;94470.16;5089631;28;20031;-75
2023/10/15 05:16:04;;;;;;;8.43;4.93;;;;;;;11.02;64.91;94504.28;5069174;28;20028;-75
2023/10/15 05:18:29;;;;;;;10.25;5.35;;;;;;;11.24;63.89;94500.59;5087394;28;20036;-75
2023/10/15 05:20:55;;;;;;;7.53;4.88;;;;;;;11.13;64.38;94496.34;5071578;28;20391;-75
2023/10/15 05:23:22;;;;;;;6.60;4.57;;;;;;;11.22;64.18;94503.31;5091048;28;20024;-75
2023/10/15 05:25:49;;;;;;;7.53;5.18;;;;;;;11.33;64.42;94513.56;5090326;28;20054;-76
2023/10/15 05:28:15;;;;;;;6.57;4.75;;;;;;;11.38;64.34;94510.56;5085166;28;20028;-75
2023/10/15 05:30:41;;;;;;;8.50;4.90;;;;;;;11.38;63.94;94497.53;5061322;28;20031;-75
2023/10/15 05:33:07;;;;;;;8.38;5.15;;;;;;;11.56;63.26;94506.28;5069715;28;20494;-75
2023/10/15 05:35:34;;;;;;;9.68;5.03;;;;;;;11.50;63.56;94488.63;5066578;28;20037;-75
2023/10/15 05:38:00;;;;;;;7.18;4.70;;;;;;;11.53;63.55;94493.56;5067680;28;20050;-75
2023/10/15 05:40:26;;;;;;;9.10;4.85;;;;;;;11.31;64.16;94493.84;5053513;28;20032;-75
2023/10/15 05:42:51;;;;;;;7.50;5.07;;;;;;;11.41;64.08;94498.06;5088521;28;20555;-75
2023/10/15 05:45:17;;;;;;;8.07;4.53;;;;;;;11.36;64.39;94491.66;5087736;28;20036;-75
2023/10/15 05:47:43;;;;;;;12.02;5.40;;;;;;;11.30;64.57;94482.63;5091402;28;20032;-75
2023/10/15 05:50:08;;;;;;;8.00;5.65;;;;;;;11.48;63.95;94500.97;5090195;28;20032;-75
2023/10/15 05:52:34;;;;;;;6.82;5.40;;;;;;;11.69;63.31;94489.53;5083803;28;20063;-75
2023/10/15 05:55:00;;;;;;;10.35;5.25;;;;;;;11.73;63.31;94503.88;5071180;28;20111;-75
2023/10/15 05:57:26;;;;;;;9.00;5.50;;;;;;;11.71;63.28;94508.44;5069754;28;20033;-75
2023/10/15 05:59:53;;;;;;;7.70;5.72;;;;;;;11.45;63.36;94463.97;5074989;28;20546;-75
2023/10/15 06:02:20;;;;;;;9.48;5.55;;;;;;;11.86;63.33;94501.81;5070151;28;20056;-75
2023/10/15 06:04:46;;;;;;;11.20;5.60;;;;;;;11.92;62.96;94493.44;5072464;28;20085;-75
2023/10/15 06:07:12;;;;;;;10.88;5.13;;;;;;;11.97;63.24;94496.44;5088090;28;20097;-75
2023/10/15 06:09:38;;;;;;;9.43;5.15;;;;;;;11.99;63.30;94501.53;5073677;28;20039;-75
2023/10/15 06:12:05;;;;;;;12.50;6.05;;;;;;;11.88;63.02;94499.91;5090473;28;20032;-75
2023/10/15 06:14:31;;;;;;;7.20;5.47;;;;;;;11.96;63.19;94489.59;5070962;28;20028;-75
2023/10/15 06:16:57;;;;;;;11.43;6.38;;;;;;;12.31;62.21;94498.47;5068708;28;20035;-75
2023/10/15 06:19:22;;;;;;;13.18;6.70;;;;;;;12.58;60.99;94482.00;5055891;28;20346;-75
2023/10/15 06:21:47;;;;;;;10.50;5.95;;;;;;;13.06;59.44;94464.38;5081720;28;20047;-75
2023/10/15 06:24:14;;;;;;;9.68;5.88;;;;;;;14.16;56.91;94489.09;5088299;28;20016;-76
2023/10/15 06:26:39;;;;;;;13.10;6.50;;;;;;;15.25;53.51;94491.66;5088844;28;20032;-76
2023/10/15 06:29:06;;;;;;;9.18;5.72;;;;;;;15.96;51.41;94478.81;5071016;28;20027;-77
2023/10/15 06:31:31;;;;;;;9.52;5.95;;;;;;;17.34;48.17;94476.50;5068660;28;20120;-76
2023/10/15 06:33:56;;;;;;;13.13;6.05;;;;;;;18.63;45.11;94472.69;5054580;28;20025;-74
2023/10/15 06:36:22;;;;;;;7.35;5.38;;;;;;;19.75;43.16;94448.50;5086819;28;20043;-76
2023/10/15 06:38:49;;;;;;;9.05;4.90;;;;;;;20.91;40.51;94456.56;5067986;28;20490;-74
2023/10/15 06:41:15;;;;;;;8.05;4.55;;;;;;;21.82;38.67;94440.19;5065459;28;20055;-73
2023/10/15 06:43:41;;;;;;;6.30;4.35;;;;;;;22.49;36.86;94430.28;5080946;28;20036;-75
2023/10/15 06:46:07;;;;;;;6.57;4.20;;;;;;;23.60;35.03;94450.25;5084279;28;20035;-76
2023/10/15 06:48:33;;;;;;;10.65;5.80;;;;;;;24.20;33.11;94459.53;5089885;28;20035;-73
2023/10/15 06:51:02;;;;;;;11.82;6.40;;;;;;;24.78;32.72;94456.44;5086071;28;20525;-77
2023/10/15 06:53:28;;;;;;;11.55;5.40;;;;;;;24.76;31.99;94442.56;5072162;28;20058;-76
2023/10/15 06:55:53;;;;;;;10.13;5.40;;;;;;;24.60;32.63;94451.97;5083611;28;20031;-77
2023/10/15 06:58:18;;;;;;;11.50;5.13;;;;;;;25.66;31.00;94446.22;5064420;28;20036;-75
2023/10/15 07:00:45;;;;;;;11.00;6.20;;;;;;;24.26;33.06;94456.00;5078169;28;20048;-74
2023/10/15 07:03:10;;;;;;;11.75;5.97;;;;;;;24.86;31.95;94432.25;5088902;28;20035;-75
2023/10/15 07:05:36;;;;;;;9.52;6.40;;;;;;;24.10;32.78;94444.13;5084429;28;20020;-74
2023/10/15 07:08:01;;;;;;;7.80;5.70;;;;;;;24.26;32.84;94438.22;5088562;28;20032;-77
2023/10/15 07:10:27;;;;;;;11.68;5.57;;;;;;;24.83;32.12;94445.16;5087655;28;20089;-77
2023/10/15 07:12:54;;;;;;;10.02;5.18;;;;;;;25.84;30.65;94425.69;5068839;28;20414;-77
2023/10/15 07:15:23;;;;;;;10.52;5.80;;;;;;;25.70;30.44;94426.94;5064847;28;20424;-74
2023/10/15 07:17:50;;;;;;;15.20;5.43;;;;;;;26.00;30.32;94420.75;5078609;28;20039;-76
2023/10/15 07:20:18;;;;;;;8.93;4.93;;;;;;;26.41;29.96;94427.75;5068699;28;20059;-74
2023/10/15 07:22:46;;;;;;;8.73;4.85;;;;;;;27.28;28.80;94416.13;5053153;28;20116;-76
2023/10/15 07:25:13;;;;;;;13.65;5.32;;;;;;;26.84;28.99;94412.38;5055915;28;20036;-77
2023/10/15 07:27:41;;;;;;;7.68;4.97;;;;;;;27.04;28.93;94419.94;5054644;28;20032;-76
2023/10/15 07:30:11;;;;;;;6.00;4.68;;;;;;;27.27;28.52;94411.84;5084849;28;20028;-75
2023/10/15 07:32:37;;;;;;;;;;;;;;;27.41;28.31;94420.34;5087354;28;20039;-71
2023/10/15 07:35:03;;;;;;;8.13;4.80;;;;;;;26.88;28.75;94416.97;5081317;28;19917;-76
2023/10/15 07:37:28;;;;;;;11.30;5.15;;;;;;;27.05;28.22;94414.38;5085681;28;20030;-74
2023/10/15 07:39:54;;;;;;;10.52;5.00;;;;;;;27.12;28.01;94416.88;5090485;28;20028;-77
2023/10/15 07:42:19;;;;;;;11.57;5.00;;;;;;;26.82;28.27;94411.78;5088547;28;20539;-76
2023/10/15 07:44:45;;;;;;;9.00;4.63;;;;;;;27.67;27.16;94412.78;5086070;28;20036;-77
2023/10/15 07:47:11;;;;;;;10.15;4.60;;;;;;;27.16;27.21;94408.22;5085630;28;20023;-76
2023/10/15 07:49:36;;;;;;;9.02;5.20;;;;;;;27.15;27.69;94406.53;5086319;28;20024;-76
2023/10/15 07:52:03;;;;;;;8.27;5.00;;;;;;;26.75;27.83;94395.97;5087512;28;20094;-74
2023/10/15 07:54:30;;;;;;;9.82;4.75;;;;;;;25.97;29.22;94400.72;5053198;28;20505;-75
2023/10/15 07:56:55;;;;;;;8.23;4.40;;;;;;;25.77;29.68;94395.72;5074964;28;20337;-75
2023/10/15 07:59:21;;;;;;;7.47;4.50;;;;;;;25.47;29.89;94387.03;5085226;28;20379;-77
2023/10/15 08:01:47;;;;;;;6.50;4.30;;;;;;;25.62;30.09;94387.38;5087899;28;20052;-76
2023/10/15 08:04:13;;;;;;;8.35;5.05;;;;;;;24.78;31.32;94395.38;5087901;28;20112;-76
2023/10/15 08:06:38;;;;;;;8.93;4.40;;;;;;;24.23;32.09;94400.72;5068781;28;20020;-77
2023/10/15 08:09:04;;;;;;;17.55;5.18;;;;;;;24.15;31.98;94388.53;5089835;28;20509;-76
2023/10/15 08:11:29;;;;;;;10.60;4.15;;;;;;;23.15;33.92;94397.38;5070218;28;20434;-76
2023/10/15 08:13:55;;;;;;;9.10;5.03;;;;;;;22.42;34.37;94399.59;5079796;28;20107;-76
2023/10/15 08:16:20;;;;;;;7.57;4.47;;;;;;;22.16;35.02;94390.69;5087608;28;20028;-78
2023/10/15 08:18:46;;;;;;;7.50;4.13;;;;;;;21.63;35.96;94390.81;5064248;28;20039;-78
2023/10/15 08:21:12;;;;;;;9.95;4.50;;;;;;;21.22;36.78;94380.44;5061030;28;20032;-77
2023/10/15 08:23:38;;;;;;;12.80;4.50;;;;;;;21.21;37.02;94398.13;5079372;28;20550;-78
2023/10/15 08:26:05;;;;;;;8.75;3.95;;;;;;;20.89;37.38;94389.13;5072829;28;20513;-77
2023/10/15 08:28:31;;;;;;;8.75;4.15;;;;;;;20.66;37.58;94381.59;5082065;28;20032;-74
2023/10/15 08:30:57;;;;;;;12.65;4.25;;;;;;;20.59;37.82;94371.03;5079662;28;20044;-75
2023/10/15 08:33:23;;;;;;;8.85;4.15;;;;;;;20.56;37.94;94378.50;5071111;28;20403;-75
2023/10/15 08:35:49;;;;;;;10.02;3.72;;;;;;;20.15;38.53;94376.72;5083530;28;20112;-75
2023/10/15 08:38:15;;;;;;;11.05;4.63;;;;;;;20.59;38.09;94375.47;5053366;28;20032;-75
2023/10/15 08:40:40;;;;;;;15.10;4.10;;;;;;;20.42;38.44;94377.63;5072935;28;20395;-74
2023/10/15 08:43:12;;;;;;;8.07;3.92;;;;;;;20.35;38.79;94377.59;5075781;28;20033;-74
2023/10/15 08:45:38;;;;;;;10.07;4.15;;;;;;;20.13;38.72;94361.09;5081868;28;20040;-73
2023/10/15 08:48:08;;;;;;;6.68;3.90;;;;;;;20.17;39.04;94369.41;5068024;28;20024;-77
2023/10/15 08:50:36;;;;;;;10.10;3.90;;;;;;;20.08;38.86;94355.59;5074377;28;20028;-74
2023/10/15 08:53:04;;;;;;;7.43;4.07;;;;;;;20.08;39.31;94366.94;5062693;28;20506;-75
2023/10/15 08:55:29;;;;;;;7.20;3.70;;;;;;;20.30;39.01;94359.72;5059083;28;20035;-75
2023/10/15 08:57:56;;;;;;;7.80;3.92;;;;;;;20.22;39.27;94352.00;5055882;28;20037;-75
2023/10/15 09:00:25;;;;;;;9.80;4.53;;;;;;;20.19;39.31;94368.22;5057221;28;20405;-75
2023/10/15 09:02:56;;;;;;;7.90;3.90;;;;;;;20.09;39.18;94351.97;5076670;28;20028;-75
2023/10/15 09:05:22;;;;;;;14.80;4.78;;;;;;;20.28;38.98;94355.66;5093005;28;20034;-75
2023/10/15 09:07:47;;;;;;;9.10;4.00;;;;;;;20.18;39.69;94363.16;5092842;28;20511;-75
2023/10/15 09:10:14;;;;;;;6.32;4.00;;;;;;;20.17;39.74;94364.13;5075912;28;20032;-75
2023/10/15 09:12:40;;;;;;;7.78;4.18;;;;;;;20.34;39.20;94354.06;5075648;28;20071;-75
2023/10/15 09:15:15;;;;;;;11.02;4.60;;;;;;;20.47;39.01;94343.53;5074728;28;20114;-75
2023/10/15 09:18:01;;;;;;;9.02;4.15;;;;;;;20.39;39.25;94336.63;5074898;28;20039;-75
2023/10/15 09:20:27;;;;;;;11.43;4.88;;;;;;;20.51;39.49;94345.59;5075424;28;20502;-75
2023/10/15 09:22:57;;;;;;;6.53;4.45;;;;;;;20.53;39.37;94330.44;5073782;28;20047;-74
2023/10/15 09:25:26;;;;;;;7.63;4.70;;;;;;;20.71;38.40;94332.47;5073697;28;20395;-75
2023/10/15 09:27:54;;;;;;;11.50;4.50;;;;;;;20.68;38.54;94334.72;5073858;28;20302;-75
2023/10/15 09:30:24;;;;;;;8.18;4.70;;;;;;;20.77;38.73;94338.78;5073539;28;20409;-75
2023/10/15 09:32:49;;;;;;;7.78;4.85;;;;;;;20.64;38.97;94334.28;5092004;28;20032;-75
2023/10/15 09:35:15;;;;;;;11.75;5.22;;;;;;;20.76;38.92;94334.53;5075326;28;20039;-75
2023/10/15 09:37:40;;;;;;;8.95;5.22;;;;;;;20.83;38.90;94329.22;5093475;28;20433;-75
2023/10/15 09:40:09;;;;;;;9.73;4.97;;;;;;;20.73;38.97;94317.25;5092218;28;20089;-74
2023/10/15 09:42:38;;;;;;;9.80;5.03;;;;;;;20.79;38.65;94318.28;5075783;28;20517;-74
2023/10/15 09:45:05;;;;;;;10.75;5.18;;;;;;;20.72;39.74;94323.53;5075404;28;20039;-74
2023/10/15 09:47:31;;;;;;;8.82;4.55;;;;;;;20.80;39.40;94319.88;5092109;28;20468;-75
2023/10/15 09:49:57;;;;;;;9.90;5.05;;;;;;;21.02;38.60;94315.22;5091848;28;20039;-75
2023/10/15 09:52:22;;;;;;;10.23;4.90;;;;;;;20.94;38.75;94305.69;5075026;28;20473;-74
2023/10/15 09:54:48;;;;;;;10.00;4.55;;;;;;;20.86;38.91;94313.00;5074341;28;20024;-74
2023/10/15 09:57:14;;;;;;;9.98;5.07;;;;;;;20.91;38.59;94305.28;5091918;28;20032;-74
2023/10/15 09:59:40;;;;;;;7.28;4.70;;;;;;;21.11;38.78;94310.56;5075017;28;20040;-74
2023/10/15 10:02:06;;;;;;;9.85;5.00;;;;;;;21.02;38.44;94282.75;5075077;28;20525;-74
2023/10/15 10:04:53;;;;;;;12.30;5.60;;;;;;;21.11;39.16;94305.28;5075029;28;20115;-74
2023/10/15 10:07:50;;;;;;;7.20;5.25;;;;;;;21.23;38.76;94302.81;5092917;28;20453;-74
2023/10/15 10:10:23;;;;;;;10.27;5.40;;;;;;;21.31;38.59;94298.16;5093023;28;20406;-74
2023/10/15 10:13:04;;;;;;;10.07;5.53;;;;;;;21.27;38.50;94277.63;5091528;28;20032;-74
2023/10/15 10:15:42;;;;;;;10.32;5.40;;;;;;;21.45;38.75;94291.03;5091654;28;20035;-74
2023/10/15 10:18:07;;;;;;;10.25;5.45;;;;;;;21.65;37.76;94275.16;5092699;28;20020;-74
2023/10/15 10:20:33;;;;;;;9.65;5.15;;;;;;;21.70;37.73;94272.66;5091528;28;20035;-74
2023/10/15 10:22:59;;;;;;;15.18;5.57;;;;;;;21.56;38.31;94257.88;5074580;28;20065;-74
2023/10/15 10:25:31;;;;;;;11.35;5.15;;;;;;;21.67;37.84;94269.63;5091180;28;20032;-74
2023/10/15 10:28:11;;;;;;;8.73;4.50;;;;;;;21.73;38.01;94271.44;5091297;28;20032;-74
2023/10/15 10:30:37;;;;;;;8.47;4.83;;;;;;;21.81;37.03;94265.94;5092739;28;20035;-74
2023/10/15 10:33:03;;;;;;;13.05;5.50;;;;;;;21.78;37.33;94243.38;5091044;28;20298;-74
2023/10/15 10:35:40;;;;;;;11.80;5.03;;;;;;;21.93;37.31;94258.97;5091272;28;20398;-74
2023/10/15 10:38:06;;;;;;;8.05;5.05;;;;;;;21.93;37.44;94243.13;5059073;28;20028;-74
2023/10/15 10:40:45;;;;;;;10.88;5.20;;;;;;;21.93;37.61;94243.13;5092434;28;20032;-74
2023/10/15 10:43:19;;;;;;;11.30;5.72;;;;;;;21.89;37.21;94249.03;5057895;28;20028;-74
2023/10/15 10:45:54;;;;;;;9.55;5.22;;;;;;;22.03;37.67;94234.72;5092507;28;20028;-74
2023/10/15 10:48:24;;;;;;;11.93;5.22;;;;;;;22.14;37.10;94228.75;5090942;28;20032;-74
2023/10/15 10:51:08;;;;;;;13.27;5.38;;;;;;;22.18;37.44;94227.34;5074600;28;20027;-73
2023/10/15 10:53:34;;;;;;;10.27;5.15;;;;;;;22.21;37.10;94213.69;5091993;28;20024;-74
2023/10/15 10:56:03;;;;;;;7.22;4.72;;;;;;;22.34;36.86;94223.38;5090842;28;20116;-74
2023/10/15 10:58:29;;;;;;;9.02;4.72;;;;;;;22.32;37.13;94200.81;5073961;28;20036;-74
2023/10/15 11:00:58;;;;;;;10.82;5.03;;;;;;;22.29;37.05;94212.63;5073774;28;20064;-74
2023/10/15 11:03:24;;;;;;;7.70;4.68;;;;;;;22.42;36.79;94209.88;5090559;28;20502;-74
2023/10/15 11:05:49;;;;;;;7.40;4.72;;;;;;;22.52;36.75;94182.94;5089893;28;20118;-74
2023/10/15 11:08:18;;;;;;;10.57;4.45;;;;;;;22.77;36.14;94195.38;5090439;28;20020;-74
2023/10/15 11:10:45;;;;;;;9.32;4.47;;;;;;;22.89;36.16;94189.13;5090595;28;20501;-74
2023/10/15 11:13:12;;;;;;;9.85;4.78;;;;;;;22.96;35.79;94181.19;5090475;28;20039;-74
2023/10/15 11:15:37;;;;;;;10.90;4.70;;;;;;;23.08;35.38;94192.66;5090428;28;20067;-74
2023/10/15 11:18:07;;;;;;;8.35;4.50;;;;;;;22.99;35.78;94166.69;5073476;28;20036;-74
2023/10/15 11:20:33;;;;;;;9.73;4.18;;;;;;;23.18;35.22;94192.16;5090289;28;20120;-74
2023/10/15 11:23:01;;;;;;;7.72;3.90;;;;;;;23.11;35.22;94186.13;5091498;28;20032;-74
2023/10/15 11:25:26;;;;;;;8.30;3.70;;;;;;;23.18;34.29;94176.28;5090304;28;20085;-74
2023/10/15 11:27:52;;;;;;;6.82;3.92;;;;;;;23.18;34.37;94158.53;5090237;28;20032;-74
2023/10/15 11:30:20;;;;;;;6.70;4.07;;;;;;;23.42;34.65;94174.56;5073359;28;20035;-74
2023/10/15 11:32:46;;;;;;;8.98;4.13;;;;;;;23.29;34.74;94161.47;5091215;28;20417;-74
2023/10/15 11:35:17;;;;;;;8.43;3.33;;;;;;;23.56;33.55;94156.66;5090026;28;20024;-74
2023/10/15 11:37:50;;;;;;;6.22;3.75;;;;;;;23.42;33.84;94158.66;5073684;28;20032;-74
2023/10/15 11:40:17;;;;;;;10.52;4.47;;;;;;;23.37;34.39;94153.22;5074072;28;20486;-74
2023/10/15 11:42:46;;;;;;;8.10;4.20;;;;;;;23.29;33.86;94167.59;5089934;28;20081;-74
2023/10/15 11:45:18;;;;;;;8.65;4.50;;;;;;;23.29;34.10;94172.06;5091256;28;20035;-74
2023/10/15 11:47:44;;;;;;;9.63;3.92;;;;;;;23.45;33.74;94139.66;5073991;28;20026;-74
2023/10/15 11:50:12;;;;;;;6.60;3.35;;;;;;;23.53;32.44;94151.81;5073180;28;20460;-74